createdAt,value
2018-08-12T00:00:44.067Z,15.44
2018-08-12T00:01:44.775Z,15.52
2018-08-12T00:02:45.492Z,15.46
2018-08-12T00:03:46.202Z,15.51
2018-08-12T00:04:46.929Z,15.40
2018-08-12T00:05:47.640Z,15.44
2018-08-12T00:06:48.365Z,15.44
2018-08-12T00:07:49.075Z,15.35
2018-08-12T00:08:49.785Z,15.43
2018-08-12T00:09:50.508Z,15.40
2018-08-12T00:10:51.232Z,15.42
2018-08-12T00:11:51.943Z,15.43
2018-08-12T00:12:52.666Z,15.44
2018-08-12T00:13:53.368Z,15.44
2018-08-12T00:14:54.083Z,15.42
2018-08-12T00:15:54.794Z,15.43
2018-08-12T00:16:55.503Z,15.47
2018-08-12T00:17:56.229Z,15.39
2018-08-12T00:18:56.943Z,15.43
2018-08-12T00:19:57.656Z,15.47
2018-08-12T00:20:58.369Z,15.40
2018-08-12T00:21:59.082Z,15.36
2018-08-12T00:22:59.808Z,15.44
2018-08-12T00:24:00.521Z,15.54
2018-08-12T00:25:01.230Z,15.36
2018-08-12T00:26:01.942Z,15.43
2018-08-12T00:27:02.650Z,15.47
2018-08-12T00:28:03.376Z,15.47
2018-08-12T00:29:04.097Z,15.44
2018-08-12T00:30:04.823Z,15.37
2018-08-12T00:31:05.536Z,15.40
2018-08-12T00:32:06.250Z,15.40
2018-08-12T00:33:06.975Z,15.47
2018-08-12T00:34:07.700Z,15.43
2018-08-12T00:35:08.412Z,15.33
2018-08-12T00:36:09.124Z,15.31
2018-08-12T00:37:09.835Z,15.29
2018-08-12T00:38:10.559Z,15.36
2018-08-12T00:39:11.273Z,15.42
2018-08-12T00:40:11.982Z,15.42
2018-08-12T00:41:12.694Z,15.37
2018-08-12T00:42:13.410Z,15.28
2018-08-12T00:43:14.119Z,15.27
2018-08-12T00:44:14.829Z,15.28
2018-08-12T00:45:15.556Z,15.33
2018-08-12T00:46:16.280Z,15.22
2018-08-12T00:47:16.992Z,15.29
2018-08-12T00:48:17.702Z,15.15
2018-08-12T00:49:18.428Z,15.19
2018-08-12T00:50:19.155Z,15.15
2018-08-12T00:51:19.877Z,15.19
2018-08-12T00:52:20.588Z,15.09
2018-08-12T00:53:21.301Z,15.14
2018-08-12T00:54:22.011Z,15.17
2018-08-12T00:55:22.723Z,15.10
2018-08-12T00:56:23.435Z,15.10
2018-08-12T00:57:24.147Z,15.14
2018-08-12T00:58:24.858Z,15.06
2018-08-12T00:59:25.582Z,15.02
2018-08-12T01:00:26.306Z,15.06
2018-08-12T01:01:27.015Z,14.97
2018-08-12T01:02:27.726Z,15.00
2018-08-12T01:03:28.438Z,14.97
2018-08-12T01:04:29.151Z,14.99
2018-08-12T01:05:29.876Z,15.10
2018-08-12T01:06:30.589Z,15.14
2018-08-12T01:07:31.302Z,15.11
2018-08-12T01:08:32.016Z,15.02
2018-08-12T01:09:32.728Z,14.96
2018-08-12T01:10:33.440Z,14.96
2018-08-12T01:11:34.164Z,14.99
2018-08-12T01:12:34.875Z,14.89
2018-08-12T01:13:35.586Z,14.92
2018-08-12T01:14:36.308Z,14.88
2018-08-12T01:15:37.025Z,14.85
2018-08-12T01:16:37.753Z,14.82
2018-08-12T01:17:38.462Z,14.73
2018-08-12T01:18:39.175Z,14.77
2018-08-12T01:19:39.889Z,14.79
2018-08-12T01:20:40.602Z,14.79
2018-08-12T01:21:41.314Z,14.78
2018-08-12T01:22:42.026Z,14.66
2018-08-12T01:23:42.738Z,14.65
2018-08-12T01:24:43.449Z,14.66
2018-08-12T01:25:44.174Z,14.60
2018-08-12T01:26:44.884Z,14.65
2018-08-12T01:27:45.607Z,14.65
2018-08-12T01:28:46.319Z,14.73
2018-08-12T01:29:47.042Z,14.63
2018-08-12T01:30:47.754Z,14.58
2018-08-12T01:31:48.468Z,14.54
2018-08-12T01:32:49.189Z,14.47
2018-08-12T01:33:49.915Z,14.47
2018-08-12T01:34:50.624Z,14.41
2018-08-12T01:35:51.358Z,14.37
2018-08-12T01:36:52.076Z,14.43
2018-08-12T01:37:52.791Z,14.41
2018-08-12T01:38:53.511Z,14.41
2018-08-12T01:39:54.221Z,14.44
2018-08-12T01:40:54.931Z,14.41
2018-08-12T01:41:55.643Z,14.47
2018-08-12T01:42:56.355Z,14.47
2018-08-12T01:43:57.065Z,14.45
2018-08-12T01:44:57.777Z,14.54
2018-08-12T01:45:58.487Z,14.40
2018-08-12T01:46:59.199Z,14.41
2018-08-12T01:47:59.910Z,14.43
2018-08-12T01:49:00.622Z,14.33
2018-08-12T01:50:01.333Z,14.37
2018-08-12T01:51:02.045Z,14.26
2018-08-12T01:52:02.757Z,14.30
2018-08-12T01:53:03.469Z,14.36
2018-08-12T01:54:04.180Z,14.25
2018-08-12T01:55:04.893Z,14.30
2018-08-12T01:56:05.605Z,14.26
2018-08-12T01:57:06.317Z,14.33
2018-08-12T01:58:07.042Z,14.30
2018-08-12T01:59:07.752Z,14.37
2018-08-12T02:00:08.476Z,14.36
2018-08-12T02:01:09.187Z,14.66
2018-08-12T02:02:09.900Z,14.59
2018-08-12T02:03:10.610Z,14.50
2018-08-12T02:04:11.321Z,14.43
2018-08-12T02:05:12.035Z,14.41
2018-08-12T02:06:12.745Z,14.41
2018-08-12T02:07:13.457Z,14.29
2018-08-12T02:08:14.184Z,14.35
2018-08-12T02:09:14.900Z,14.33
2018-08-12T02:10:15.624Z,14.26
2018-08-12T02:11:16.340Z,14.33
2018-08-12T02:12:17.063Z,14.26
2018-08-12T02:13:17.775Z,14.23
2018-08-12T02:14:18.487Z,14.14
2018-08-12T02:15:19.200Z,14.17
2018-08-12T02:16:19.909Z,14.26
2018-08-12T02:17:20.619Z,14.26
2018-08-12T02:18:21.331Z,14.25
2018-08-12T02:19:22.043Z,14.23
2018-08-12T02:20:22.754Z,14.20
2018-08-12T02:21:23.466Z,14.28
2018-08-12T02:22:24.178Z,14.17
2018-08-12T02:23:24.890Z,14.25
2018-08-12T02:24:25.607Z,14.12
2018-08-12T02:25:26.329Z,14.11
2018-08-12T02:26:27.042Z,14.17
2018-08-12T02:27:27.753Z,14.11
2018-08-12T02:28:28.476Z,14.14
2018-08-12T02:29:29.189Z,14.14
2018-08-12T02:30:29.900Z,14.14
2018-08-12T02:31:30.618Z,14.11
2018-08-12T02:32:31.339Z,14.17
2018-08-12T02:33:32.051Z,14.28
2018-08-12T02:34:32.777Z,14.12
2018-08-12T02:35:33.502Z,14.17
2018-08-12T02:36:34.216Z,14.20
2018-08-12T02:37:34.925Z,14.20
2018-08-12T02:38:35.638Z,14.12
2018-08-12T02:39:36.350Z,14.11
2018-08-12T02:40:37.077Z,14.14
2018-08-12T02:41:37.804Z,14.07
2018-08-12T02:42:38.530Z,13.99
2018-08-12T02:43:39.242Z,13.97
2018-08-12T02:44:39.956Z,14.00
2018-08-12T02:45:40.680Z,14.05
2018-08-12T02:46:41.393Z,14.03
2018-08-12T02:47:42.106Z,13.89
2018-08-12T02:48:42.817Z,13.93
2018-08-12T02:49:43.539Z,13.93
2018-08-12T02:50:44.256Z,13.87
2018-08-12T02:51:44.981Z,13.95
2018-08-12T02:52:45.707Z,13.95
2018-08-12T02:53:46.420Z,14.04
2018-08-12T02:54:47.134Z,13.95
2018-08-12T02:55:47.845Z,13.90
2018-08-12T02:56:48.569Z,14.00
2018-08-12T02:57:49.281Z,13.92
2018-08-12T02:58:49.993Z,13.97
2018-08-12T02:59:50.705Z,13.92
2018-08-12T03:00:51.421Z,13.93
2018-08-12T03:01:52.131Z,13.95
2018-08-12T03:02:52.857Z,13.93
2018-08-12T03:03:53.585Z,13.92
2018-08-12T03:04:54.295Z,13.86
2018-08-12T03:05:55.007Z,13.87
2018-08-12T03:06:55.718Z,13.93
2018-08-12T03:07:56.429Z,13.87
2018-08-12T03:08:57.141Z,13.95
2018-08-12T03:09:57.865Z,13.92
2018-08-12T03:10:58.610Z,13.85
2018-08-12T03:11:59.305Z,13.86
2018-08-12T03:13:00.018Z,13.83
2018-08-12T03:14:00.732Z,13.87
2018-08-12T03:15:01.457Z,13.89
2018-08-12T03:16:02.170Z,13.90
2018-08-12T03:17:02.895Z,13.95
2018-08-12T03:18:03.605Z,13.92
2018-08-12T03:19:04.319Z,13.89
2018-08-12T03:20:05.031Z,13.87
2018-08-12T03:21:05.742Z,13.92
2018-08-12T03:22:06.452Z,13.86
2018-08-12T03:23:07.174Z,13.89
2018-08-12T03:24:07.890Z,13.83
2018-08-12T03:25:08.602Z,13.95
2018-08-12T03:26:09.314Z,13.95
2018-08-12T03:27:10.041Z,13.89
2018-08-12T03:28:10.751Z,14.00
2018-08-12T03:29:11.464Z,14.04
2018-08-12T03:30:12.284Z,13.93
2018-08-12T03:31:12.887Z,13.93
2018-08-12T03:32:13.599Z,13.96
2018-08-12T03:33:14.311Z,13.96
2018-08-12T03:34:15.023Z,13.99
2018-08-12T03:35:15.734Z,14.05
2018-08-12T03:36:16.445Z,14.03
2018-08-12T03:37:17.172Z,14.00
2018-08-12T03:38:17.885Z,14.03
2018-08-12T03:39:18.598Z,14.00
2018-08-12T03:40:19.324Z,13.97
2018-08-12T03:41:20.046Z,13.95
2018-08-12T03:42:20.763Z,13.93
2018-08-12T03:43:21.491Z,13.95
2018-08-12T03:44:22.202Z,13.89
2018-08-12T03:45:22.917Z,13.95
2018-08-12T03:46:23.641Z,13.86
2018-08-12T03:47:24.356Z,13.89
2018-08-12T03:48:25.083Z,13.87
2018-08-12T03:49:25.797Z,13.90
2018-08-12T03:50:26.528Z,13.87
2018-08-12T03:51:27.236Z,13.89
2018-08-12T03:52:27.949Z,13.86
2018-08-12T03:53:28.662Z,13.99
2018-08-12T03:54:29.375Z,13.86
2018-08-12T03:55:30.088Z,13.90
2018-08-12T03:56:30.801Z,13.90
2018-08-12T03:57:31.515Z,13.93
2018-08-12T03:58:32.241Z,13.89
2018-08-12T03:59:32.954Z,13.90
2018-08-12T04:00:33.667Z,13.90
2018-08-12T04:01:34.379Z,13.92
2018-08-12T04:02:35.109Z,13.93
2018-08-12T04:03:35.835Z,13.97
2018-08-12T04:04:36.548Z,13.95
2018-08-12T04:05:37.263Z,13.90
2018-08-12T04:06:37.977Z,13.87
2018-08-12T04:07:38.690Z,13.95
2018-08-12T04:08:39.418Z,13.90
2018-08-12T04:09:40.149Z,13.93
2018-08-12T04:10:40.865Z,13.85
2018-08-12T04:11:41.577Z,13.93
2018-08-12T04:12:42.291Z,13.86
2018-08-12T04:13:43.006Z,13.93
2018-08-12T04:14:43.719Z,13.95
2018-08-12T04:15:44.434Z,14.03
2018-08-12T04:16:45.165Z,13.99
2018-08-12T04:17:45.893Z,14.00
2018-08-12T04:18:46.606Z,14.14
2018-08-12T04:19:47.321Z,14.18
2018-08-12T04:20:48.049Z,14.05
2018-08-12T04:21:48.769Z,14.17
2018-08-12T04:22:49.484Z,14.10
2018-08-12T04:23:50.200Z,14.17
2018-08-12T04:24:50.915Z,14.14
2018-08-12T04:25:51.633Z,14.20
2018-08-12T04:26:52.347Z,14.22
2018-08-12T04:27:53.074Z,14.28
2018-08-12T04:28:53.789Z,14.30
2018-08-12T04:29:54.508Z,14.25
2018-08-12T04:30:55.236Z,14.26
2018-08-12T04:31:55.954Z,14.36
2018-08-12T04:32:56.683Z,14.33
2018-08-12T04:33:57.398Z,14.35
2018-08-12T04:34:58.112Z,14.36
2018-08-12T04:35:58.828Z,14.40
2018-08-12T04:36:59.545Z,14.48
2018-08-12T04:38:00.262Z,14.48
2018-08-12T04:39:00.978Z,14.60
2018-08-12T04:40:01.711Z,14.59
2018-08-12T04:41:02.423Z,14.51
2018-08-12T04:42:03.139Z,14.58
2018-08-12T04:43:03.855Z,14.53
2018-08-12T04:44:04.586Z,14.47
2018-08-12T04:45:05.303Z,14.50
2018-08-12T04:46:06.028Z,14.55
2018-08-12T04:47:06.736Z,14.48
2018-08-12T04:48:07.452Z,14.45
2018-08-12T04:49:08.172Z,14.50
2018-08-12T04:50:08.885Z,14.41
2018-08-12T04:51:09.606Z,14.45
2018-08-12T04:52:10.334Z,14.44
2018-08-12T04:53:11.065Z,14.45
2018-08-12T04:54:11.781Z,14.43
2018-08-12T04:55:12.499Z,14.51
2018-08-12T04:56:13.218Z,14.44
2018-08-12T04:57:13.937Z,14.43
2018-08-12T04:58:14.667Z,14.36
2018-08-12T04:59:15.423Z,14.44
2018-08-12T05:00:16.115Z,14.37
2018-08-12T05:01:16.846Z,14.48
2018-08-12T05:02:17.564Z,14.40
2018-08-12T05:03:18.283Z,14.44
2018-08-12T05:04:19.012Z,14.47
2018-08-12T05:05:19.730Z,14.47
2018-08-12T05:06:20.446Z,14.59
2018-08-12T05:07:21.163Z,14.53
2018-08-12T05:08:21.894Z,14.51
2018-08-12T05:09:22.610Z,14.68
2018-08-12T05:10:23.329Z,14.65
2018-08-12T05:11:24.043Z,14.77
2018-08-12T05:12:24.760Z,14.77
2018-08-12T05:13:25.478Z,14.77
2018-08-12T05:14:26.198Z,14.81
2018-08-12T05:15:26.929Z,14.81
2018-08-12T05:16:27.645Z,14.88
2018-08-12T05:17:28.363Z,14.84
2018-08-12T05:18:29.081Z,14.82
2018-08-12T05:19:29.799Z,14.94
2018-08-12T05:20:30.517Z,15.07
2018-08-12T05:21:31.234Z,15.10
2018-08-12T05:22:31.950Z,15.22
2018-08-12T05:23:32.672Z,15.31
2018-08-12T05:24:33.399Z,15.39
2018-08-12T05:25:34.116Z,15.35
2018-08-12T05:26:34.833Z,15.33
2018-08-12T05:27:35.552Z,15.27
2018-08-12T05:28:36.269Z,15.31
2018-08-12T05:29:36.988Z,15.24
2018-08-12T05:30:37.706Z,15.29
2018-08-12T05:31:38.425Z,15.28
2018-08-12T05:32:39.144Z,15.22
2018-08-12T05:33:39.865Z,15.27
2018-08-12T05:34:40.594Z,15.42
2018-08-12T05:35:41.327Z,15.51
2018-08-12T05:36:42.043Z,15.54
2018-08-12T05:37:42.758Z,15.59
2018-08-12T05:38:43.476Z,15.49
2018-08-12T05:39:44.209Z,15.61
2018-08-12T05:40:44.929Z,15.64
2018-08-12T05:41:45.648Z,15.57
2018-08-12T05:42:46.370Z,15.65
2018-08-12T05:43:47.085Z,15.64
2018-08-12T05:44:47.822Z,15.61
2018-08-12T05:45:48.554Z,15.62
2018-08-12T05:46:49.288Z,15.75
2018-08-12T05:47:50.009Z,15.73
2018-08-12T05:48:50.727Z,15.73
2018-08-12T05:49:51.459Z,15.70
2018-08-12T05:50:52.178Z,15.76
2018-08-12T05:51:52.896Z,15.84
2018-08-12T05:52:53.628Z,15.83
2018-08-12T05:53:54.360Z,15.83
2018-08-12T05:54:55.082Z,15.90
2018-08-12T05:55:55.800Z,15.86
2018-08-12T05:56:56.519Z,15.82
2018-08-12T05:57:57.243Z,15.84
2018-08-12T05:58:57.957Z,15.88
2018-08-12T05:59:58.677Z,15.98
2018-08-12T06:00:59.411Z,15.95
2018-08-12T06:02:00.130Z,16.00
2018-08-12T06:03:00.865Z,15.86
2018-08-12T06:04:01.597Z,15.82
2018-08-12T06:05:02.332Z,15.91
2018-08-12T06:06:03.051Z,15.97
2018-08-12T06:07:03.769Z,15.95
2018-08-12T06:08:04.486Z,15.98
2018-08-12T06:09:05.219Z,16.12
2018-08-12T06:10:05.939Z,16.21
2018-08-12T06:11:06.659Z,16.02
2018-08-12T06:12:07.386Z,16.10
2018-08-12T06:13:08.100Z,16.09
2018-08-12T06:14:08.818Z,16.13
2018-08-12T06:15:09.537Z,16.21
2018-08-12T06:16:10.256Z,16.20
2018-08-12T06:17:10.991Z,16.33
2018-08-12T06:18:11.715Z,16.38
2018-08-12T06:19:12.446Z,16.53
2018-08-12T06:20:13.174Z,16.53
2018-08-12T06:21:13.898Z,16.61
2018-08-12T06:22:14.616Z,16.64
2018-08-12T06:23:15.352Z,16.66
2018-08-12T06:24:16.084Z,16.64
2018-08-12T06:25:16.804Z,16.78
2018-08-12T06:26:17.525Z,16.72
2018-08-12T06:27:18.245Z,16.76
2018-08-12T06:28:18.962Z,16.96
2018-08-12T06:29:19.681Z,17.02
2018-08-12T06:30:20.401Z,17.02
2018-08-12T06:31:21.155Z,16.93
2018-08-12T06:32:21.863Z,16.93
2018-08-12T06:33:22.587Z,16.97
2018-08-12T06:34:23.362Z,17.04
2018-08-12T06:35:24.040Z,17.16
2018-08-12T06:36:24.762Z,17.14
2018-08-12T06:37:25.482Z,17.19
2018-08-12T06:38:26.216Z,17.24
2018-08-12T06:39:26.946Z,17.22
2018-08-12T06:40:27.666Z,17.27
2018-08-12T06:41:28.398Z,17.39
2018-08-12T06:42:29.108Z,17.33
2018-08-12T06:43:29.827Z,17.33
2018-08-12T06:44:30.546Z,17.38
2018-08-12T06:45:31.278Z,17.39
2018-08-12T06:46:32.012Z,17.44
2018-08-12T06:47:32.733Z,17.44
2018-08-12T06:48:33.453Z,17.46
2018-08-12T06:49:34.188Z,17.51
2018-08-12T06:50:34.922Z,17.56
2018-08-12T06:51:35.642Z,17.68
2018-08-12T06:52:36.363Z,17.76
2018-08-12T06:53:37.084Z,17.87
2018-08-12T06:54:37.803Z,17.98
2018-08-12T06:55:38.537Z,18.03
2018-08-12T06:56:39.270Z,18.03
2018-08-12T06:57:39.990Z,18.15
2018-08-12T06:58:40.754Z,18.26
2018-08-12T06:59:41.449Z,18.35
2018-08-12T07:00:42.172Z,18.55
2018-08-12T07:01:42.892Z,18.62
2018-08-12T07:02:43.613Z,18.60
2018-08-12T07:03:44.337Z,18.75
2018-08-12T07:04:45.058Z,18.65
2018-08-12T07:05:45.781Z,18.81
2018-08-12T07:06:46.506Z,18.89
2018-08-12T07:07:47.231Z,19.07
2018-08-12T07:08:47.956Z,19.16
2018-08-12T07:09:48.680Z,19.18
2018-08-12T07:10:49.420Z,19.27
2018-08-12T07:11:50.147Z,19.29
2018-08-12T07:12:50.872Z,19.31
2018-08-12T07:13:51.611Z,19.44
2018-08-12T07:14:52.338Z,19.52
2018-08-12T07:15:53.065Z,19.63
2018-08-12T07:16:53.790Z,19.64
2018-08-12T07:17:54.517Z,19.81
2018-08-12T07:18:55.243Z,20.02
2018-08-12T07:19:55.969Z,20.28
2018-08-12T07:20:56.697Z,20.63
2018-08-12T07:21:57.424Z,20.69
2018-08-12T07:22:58.150Z,20.87
2018-08-12T07:23:58.879Z,21.09
2018-08-12T07:24:59.606Z,21.14
2018-08-12T07:26:00.334Z,21.06
2018-08-12T07:27:01.066Z,21.17
2018-08-12T07:28:01.796Z,21.15
2018-08-12T07:29:02.535Z,20.97
2018-08-12T07:30:03.266Z,21.00
2018-08-12T07:31:04.008Z,21.14
2018-08-12T07:32:04.745Z,21.43
2018-08-12T07:33:05.480Z,21.58
2018-08-12T07:34:06.212Z,21.79
2018-08-12T07:35:06.941Z,21.70
2018-08-12T07:36:07.675Z,21.75
2018-08-12T07:37:08.421Z,21.83
2018-08-12T07:38:09.155Z,21.73
2018-08-12T07:39:09.888Z,21.70
2018-08-12T07:40:10.622Z,21.85
2018-08-12T07:41:11.369Z,21.76
2018-08-12T07:42:12.102Z,21.64
2018-08-12T07:43:12.852Z,21.83
2018-08-12T07:44:13.584Z,21.96
2018-08-12T07:45:14.330Z,22.14
2018-08-12T07:46:15.063Z,22.18
2018-08-12T07:47:15.796Z,22.33
2018-08-12T07:48:16.544Z,22.14
2018-08-12T07:49:17.277Z,22.14
2018-08-12T07:50:18.014Z,21.80
2018-08-12T07:51:18.747Z,21.83
2018-08-12T07:52:19.482Z,21.73
2018-08-12T07:53:20.215Z,21.92
2018-08-12T07:54:20.962Z,22.00
2018-08-12T07:55:21.695Z,22.07
2018-08-12T07:56:22.442Z,22.06
2018-08-12T07:57:23.173Z,22.13
2018-08-12T07:58:23.922Z,22.22
2018-08-12T07:59:24.653Z,22.51
2018-08-12T08:00:25.386Z,22.87
2018-08-12T08:01:26.121Z,23.27
2018-08-12T08:02:26.868Z,23.06
2018-08-12T08:03:27.599Z,23.06
2018-08-12T08:04:28.349Z,23.20
2018-08-12T08:05:29.085Z,23.32
2018-08-12T08:06:29.812Z,23.46
2018-08-12T08:07:30.543Z,23.20
2018-08-12T08:08:31.283Z,23.34
2018-08-12T08:09:32.001Z,23.23
2018-08-12T08:10:32.730Z,23.17
2018-08-12T08:11:33.457Z,23.13
2018-08-12T08:12:34.247Z,23.08
2018-08-12T08:13:34.921Z,22.87
2018-08-12T08:14:35.646Z,22.87
2018-08-12T08:15:36.376Z,23.06
2018-08-12T08:16:37.109Z,23.08
2018-08-12T08:17:37.841Z,22.69
2018-08-12T08:18:38.574Z,22.69
2018-08-12T08:19:39.320Z,22.57
2018-08-12T08:20:40.036Z,22.47
2018-08-12T08:21:40.769Z,22.59
2018-08-12T08:22:41.512Z,22.63
2018-08-12T08:23:42.243Z,22.62
2018-08-12T08:24:42.988Z,22.69
2018-08-12T08:25:43.764Z,22.75
2018-08-12T08:26:44.449Z,22.53
2018-08-12T08:27:45.181Z,22.55
2018-08-12T08:28:45.914Z,22.43
2018-08-12T08:29:46.661Z,22.90
2018-08-12T08:30:47.392Z,23.21
2018-08-12T08:31:48.361Z,23.55
2018-08-12T08:32:48.883Z,23.84
2018-08-12T08:33:49.606Z,24.11
2018-08-12T08:34:50.337Z,24.55
2018-08-12T08:35:51.085Z,24.76
2018-08-12T08:36:51.823Z,24.86
2018-08-12T08:37:52.591Z,25.04
2018-08-12T08:38:53.284Z,25.29
2018-08-12T08:39:54.014Z,25.33
2018-08-12T08:40:54.745Z,25.62
2018-08-12T08:41:55.492Z,25.68
2018-08-12T08:42:56.234Z,25.70
2018-08-12T08:43:56.987Z,25.43
2018-08-12T08:44:57.692Z,25.48
2018-08-12T08:45:58.439Z,25.35
2018-08-12T08:46:59.186Z,25.62
2018-08-12T08:47:59.922Z,25.99
2018-08-12T08:49:00.654Z,26.34
2018-08-12T08:50:01.453Z,26.44
2018-08-12T08:51:02.122Z,26.73
2018-08-12T08:52:02.856Z,27.10
2018-08-12T08:53:03.591Z,27.20
2018-08-12T08:54:04.353Z,27.39
2018-08-12T08:55:05.062Z,27.15
2018-08-12T08:56:05.812Z,26.47
2018-08-12T08:57:06.529Z,26.60
2018-08-12T08:58:07.268Z,26.75
2018-08-12T08:59:08.001Z,27.03
2018-08-12T09:00:08.739Z,26.88
2018-08-12T09:01:09.493Z,26.45
2018-08-12T09:02:10.224Z,26.63
2018-08-12T09:03:10.958Z,26.99
2018-08-12T09:04:11.707Z,27.03
2018-08-12T09:05:12.441Z,26.92
2018-08-12T09:06:13.176Z,27.03
2018-08-12T09:07:13.911Z,27.33
2018-08-12T09:08:14.816Z,27.47
2018-08-12T09:09:15.635Z,27.65
2018-08-12T09:10:16.137Z,27.64
2018-08-12T09:11:16.869Z,27.54
2018-08-12T09:12:17.608Z,27.70
2018-08-12T09:13:18.345Z,27.92
2018-08-12T09:14:19.101Z,27.68
2018-08-12T09:15:19.852Z,27.64
2018-08-12T09:16:20.583Z,27.08
2018-08-12T09:17:21.319Z,26.53
2018-08-12T09:18:22.172Z,26.56
2018-08-12T09:19:22.789Z,26.60
2018-08-12T09:20:23.525Z,26.37
2018-08-12T09:21:24.260Z,26.28
2018-08-12T09:22:24.993Z,26.29
2018-08-12T09:23:25.729Z,26.78
2018-08-12T09:24:26.465Z,27.10
2018-08-12T09:25:27.227Z,27.42
2018-08-12T09:26:27.973Z,27.93
2018-08-12T09:27:28.710Z,27.74
2018-08-12T09:28:29.448Z,27.77
2018-08-12T09:29:30.188Z,27.55
2018-08-12T09:30:30.928Z,27.55
2018-08-12T09:31:31.669Z,28.10
2018-08-12T09:32:32.408Z,28.12
2018-08-12T09:33:33.170Z,27.83
2018-08-12T09:34:33.909Z,27.75
2018-08-12T09:35:34.653Z,27.52
2018-08-12T09:36:35.392Z,27.33
2018-08-12T09:37:36.151Z,27.73
2018-08-12T09:38:36.895Z,27.44
2018-08-12T09:39:37.639Z,27.33
2018-08-12T09:40:38.397Z,27.29
2018-08-12T09:41:39.143Z,28.08
2018-08-12T09:42:39.888Z,28.20
2018-08-12T09:43:40.636Z,28.39
2018-08-12T09:44:41.383Z,28.07
2018-08-12T09:45:42.129Z,28.00
2018-08-12T09:46:42.877Z,28.12
2018-08-12T09:47:43.617Z,28.19
2018-08-12T09:48:44.364Z,28.27
2018-08-12T09:49:45.105Z,28.49
2018-08-12T09:50:45.862Z,28.75
2018-08-12T09:51:46.825Z,28.88
2018-08-12T09:52:47.370Z,28.91
2018-08-12T09:53:48.108Z,29.14
2018-08-12T09:54:48.849Z,29.22
2018-08-12T09:55:49.590Z,28.81
2018-08-12T09:56:50.347Z,29.23
2018-08-12T09:57:51.093Z,29.69
2018-08-12T09:58:51.848Z,29.38
2018-08-12T09:59:52.589Z,29.49
2018-08-12T10:00:53.335Z,29.14
2018-08-12T10:01:54.072Z,29.17
2018-08-12T10:02:54.814Z,29.10
2018-08-12T10:03:55.557Z,28.96
2018-08-12T10:04:56.300Z,28.85
2018-08-12T10:05:57.043Z,29.02
2018-08-12T10:06:57.789Z,29.16
2018-08-12T10:07:58.541Z,29.27
2018-08-12T10:08:59.283Z,28.81
2018-08-12T10:10:00.026Z,28.94
2018-08-12T10:11:00.766Z,29.45
2018-08-12T10:12:01.507Z,29.79
2018-08-12T10:13:02.249Z,30.08
2018-08-12T10:14:02.990Z,30.03
2018-08-12T10:15:03.734Z,29.98
2018-08-12T10:16:04.476Z,30.69
2018-08-12T10:17:05.218Z,30.34
2018-08-12T10:18:05.959Z,29.69
2018-08-12T10:19:06.701Z,29.97
2018-08-12T10:20:07.442Z,30.19
2018-08-12T10:21:08.183Z,29.86
2018-08-12T10:22:08.925Z,29.76
2018-08-12T10:23:09.682Z,29.87
2018-08-12T10:24:10.424Z,30.02
2018-08-12T10:25:11.169Z,30.06
2018-08-12T10:26:11.913Z,30.32
2018-08-12T10:27:12.656Z,30.35
2018-08-12T10:28:13.413Z,30.84
2018-08-12T10:29:14.243Z,30.68
2018-08-12T10:30:14.912Z,31.33
2018-08-12T10:31:15.655Z,31.29
2018-08-12T10:32:16.398Z,31.47
2018-08-12T10:33:17.141Z,31.65
2018-08-12T10:34:17.884Z,31.46
2018-08-12T10:35:18.627Z,31.02
2018-08-12T10:36:19.370Z,30.61
2018-08-12T10:37:20.108Z,30.15
2018-08-12T10:38:20.851Z,30.55
2018-08-12T10:39:21.595Z,30.57
2018-08-12T10:40:22.341Z,30.55
2018-08-12T10:41:23.101Z,30.30
2018-08-12T10:42:23.858Z,30.92
2018-08-12T10:43:24.603Z,31.58
2018-08-12T10:44:25.376Z,31.87
2018-08-12T10:45:26.096Z,32.03
2018-08-12T10:46:26.835Z,31.29
2018-08-12T10:47:27.573Z,32.34
2018-08-12T10:48:28.326Z,32.86
2018-08-12T10:49:29.067Z,33.14
2018-08-12T10:51:19.492Z,33.14
2018-08-12T10:52:20.228Z,33.55
2018-08-12T10:53:20.971Z,33.55
2018-08-12T10:54:21.714Z,33.86
2018-08-12T10:55:22.467Z,33.99
2018-08-12T10:56:23.224Z,33.83
2018-08-12T10:57:23.966Z,32.67
2018-08-12T10:58:24.709Z,32.63
2018-08-12T10:59:25.545Z,32.96
2018-08-12T11:00:26.202Z,33.20
2018-08-12T11:01:26.945Z,33.92
2018-08-12T11:02:27.687Z,34.08
2018-08-12T11:03:28.427Z,34.45
2018-08-12T11:04:29.166Z,34.83
2018-08-12T11:05:29.905Z,33.71
2018-08-12T11:06:30.645Z,32.48
2018-08-12T11:07:31.456Z,32.34
2018-08-12T11:08:32.120Z,32.45
2018-08-12T11:09:32.874Z,32.60
2018-08-12T11:10:33.613Z,32.14
2018-08-12T11:11:34.354Z,31.51
2018-08-12T11:12:35.117Z,31.34
2018-08-12T11:14:53.677Z,30.48
2018-08-12T11:15:54.415Z,30.63
2018-08-12T11:16:55.157Z,31.46
2018-08-12T11:17:55.892Z,32.03
2018-08-12T11:18:56.624Z,32.78
2018-08-12T11:19:57.360Z,32.26
2018-08-12T11:20:58.111Z,31.27
2018-08-12T11:21:58.865Z,31.00
2018-08-12T11:22:59.616Z,30.25
2018-08-12T11:24:53.235Z,30.32
2018-08-12T11:27:09.592Z,30.13
2018-08-12T11:28:10.328Z,30.46
2018-08-12T11:30:12.789Z,30.96
2018-08-12T11:31:13.504Z,30.81
2018-08-12T11:32:14.245Z,31.22
2018-08-12T11:33:14.996Z,30.92
2018-08-12T11:34:16.541Z,30.69
2018-08-12T11:35:17.277Z,30.24
2018-08-12T11:36:18.022Z,30.39
2018-08-12T11:37:18.751Z,30.85
2018-08-12T11:38:19.484Z,31.28
2018-08-12T11:39:20.215Z,31.81
2018-08-12T11:40:20.958Z,32.07
2018-08-12T11:41:21.744Z,32.14
2018-08-12T11:42:22.416Z,32.34
2018-08-12T11:43:23.148Z,32.56
2018-08-12T11:44:23.878Z,32.71
2018-08-12T11:45:24.605Z,32.04
2018-08-12T11:46:25.334Z,32.22
2018-08-12T11:47:26.116Z,32.78
2018-08-12T11:48:26.791Z,32.23
2018-08-12T11:49:27.520Z,32.46
2018-08-12T11:50:28.251Z,32.78
2018-08-12T11:51:28.996Z,32.78
2018-08-12T11:52:29.741Z,33.07
2018-08-12T11:53:30.468Z,32.97
2018-08-12T11:54:31.197Z,32.52
2018-08-12T11:55:31.926Z,32.82
2018-08-12T11:56:32.655Z,32.34
2018-08-12T11:57:33.381Z,32.21
2018-08-12T11:58:34.111Z,32.31
2018-08-12T11:59:34.853Z,32.46
2018-08-12T12:00:35.581Z,32.68
2018-08-12T12:01:36.309Z,32.92
2018-08-12T12:02:37.038Z,32.80
2018-08-12T12:03:37.767Z,32.67
2018-08-12T12:04:38.497Z,32.52
2018-08-12T12:05:39.239Z,32.22
2018-08-12T12:06:39.983Z,32.46
2018-08-12T12:07:40.712Z,32.65
2018-08-12T12:08:41.440Z,32.12
2018-08-12T12:09:42.168Z,31.61
2018-08-12T12:10:42.896Z,31.20
2018-08-12T12:11:43.623Z,31.15
2018-08-12T12:12:44.349Z,31.34
2018-08-12T12:13:45.078Z,30.84
2018-08-12T12:14:45.846Z,31.12
2018-08-12T12:15:46.589Z,31.00
2018-08-12T12:16:47.332Z,30.99
2018-08-12T12:17:48.075Z,31.06
2018-08-12T12:18:48.798Z,31.34
2018-08-12T12:19:49.525Z,31.71
2018-08-12T12:20:50.253Z,31.55
2018-08-12T12:21:50.981Z,30.81
2018-08-12T12:22:51.709Z,30.10
2018-08-12T12:23:52.447Z,30.06
2018-08-12T12:24:53.174Z,30.13
2018-08-12T12:25:53.912Z,30.32
2018-08-12T12:26:54.643Z,30.44
2018-08-12T12:27:55.370Z,30.10
2018-08-12T12:28:56.113Z,30.21
2018-08-12T12:29:56.840Z,30.34
2018-08-12T12:30:57.566Z,30.44
2018-08-12T12:31:58.308Z,30.25
2018-08-12T12:32:59.050Z,29.82
2018-08-12T12:33:59.775Z,29.75
2018-08-12T12:35:00.515Z,29.71
2018-08-12T12:36:01.257Z,29.66
2018-08-12T12:37:01.989Z,29.42
2018-08-12T12:38:02.712Z,28.91
2018-08-12T12:39:03.439Z,28.79
2018-08-12T12:40:04.167Z,28.78
2018-08-12T12:41:04.909Z,28.97
2018-08-12T12:42:05.651Z,29.26
2018-08-12T12:43:06.379Z,29.57
2018-08-12T12:44:07.104Z,29.73
2018-08-12T12:45:07.831Z,30.02
2018-08-12T12:46:08.560Z,30.10
2018-08-12T12:47:09.300Z,30.13
2018-08-12T12:48:10.030Z,29.75
2018-08-12T12:49:10.771Z,29.32
2018-08-12T12:50:11.577Z,29.38
2018-08-12T12:51:12.236Z,29.39
2018-08-12T12:52:12.960Z,29.17
2018-08-12T12:53:13.688Z,29.24
2018-08-12T12:54:14.430Z,29.01
2018-08-12T12:55:15.160Z,28.57
2018-08-12T12:56:15.900Z,28.59
2018-08-12T12:57:16.691Z,28.47
2018-08-12T12:58:17.418Z,28.54
2018-08-12T12:59:18.145Z,28.66
2018-08-12T13:00:18.873Z,28.45
2018-08-12T13:01:19.626Z,28.20
2018-08-12T13:02:20.391Z,28.14
2018-08-12T13:03:21.118Z,28.02
2018-08-12T13:04:21.845Z,28.08
2018-08-12T13:05:22.595Z,27.74
2018-08-12T13:06:23.328Z,27.82
2018-08-12T13:07:24.056Z,27.71